Terminal Aerodrome Forecast
Issued by NWS

Home | Current Version | Previous Version | Graphics & Text | Print | Product List | Glossary On
Versions: 1 2 3 4 5 6 7 8 9 10 11 12 13
000
FTUS45 KGGW 191133
TAFGDV
TAF
KGDV 191133Z 1912/2012 02005KT P6SM OVC080
     FM191500 03005KT 6SM -SHSN OVC030
     FM191700 03006KT 6SM -SHSN OVC015
     FM200700 31005KT P6SM BKN010
     FM200900 27005KT P6SM BKN020=

USA.gov is the U.S. government's official web portal to all federal, state and local government web resources and services.